createdAt,value
2023-04-27T00:02:45.862Z,97.68
2023-04-27T00:05:32.756Z,97.70
2023-04-27T00:08:12.713Z,97.64
2023-04-27T00:12:02.738Z,97.98
2023-04-27T00:14:49.708Z,97.72
2023-04-27T00:17:22.990Z,97.69
2023-04-27T00:20:11.736Z,98.15
2023-04-27T00:22:52.731Z,98.16
2023-04-27T00:25:46.699Z,97.87
2023-04-27T00:28:33.693Z,98.53
2023-04-27T00:31:13.720Z,98.17
2023-04-27T00:34:00.722Z,98.34
2023-04-27T00:36:33.818Z,98.32
2023-04-27T00:39:20.697Z,98.63
2023-04-27T00:41:53.931Z,98.46
2023-04-27T00:44:40.739Z,98.91
2023-04-27T00:47:13.884Z,98.76
2023-04-27T00:50:00.681Z,98.57
2023-04-27T00:52:33.810Z,98.65
2023-04-27T00:55:20.708Z,98.75
2023-04-27T00:58:00.711Z,98.64
2023-04-27T01:00:54.794Z,99.02
2023-04-27T01:03:41.880Z,99.06
2023-04-27T01:06:14.863Z,99.04
2023-04-27T01:09:01.661Z,98.94
2023-04-27T01:11:34.887Z,99.07
2023-04-27T01:14:21.726Z,99.41
2023-04-27T01:17:01.855Z,99.03
2023-04-27T01:19:48.749Z,99.46
2023-04-27T01:22:21.824Z,99.41
2023-04-27T01:25:08.765Z,99.26
2023-04-27T01:27:41.824Z,99.13
2023-04-27T01:30:31.708Z,99.62
2023-04-27T01:33:11.777Z,99.48
2023-04-27T01:36:05.762Z,99.75
2023-04-27T01:38:59.705Z,99.76
2023-04-27T01:41:53.705Z,99.45
2023-04-27T01:44:47.776Z,99.62
2023-04-27T01:47:41.808Z,99.97
2023-04-27T01:50:35.730Z,100.00
2023-04-27T01:53:31.827Z,100.00
2023-04-27T01:56:25.758Z,100.00
2023-04-27T01:59:19.722Z,100.00
2023-04-27T02:02:13.786Z,100.00
2023-04-27T02:05:00.738Z,100.00
2023-04-27T02:07:40.748Z,100.00
2023-04-27T02:10:34.765Z,100.00
2023-04-27T02:13:28.776Z,100.00
2023-04-27T02:16:15.757Z,100.00
2023-04-27T02:18:49.216Z,100.00
2023-04-27T02:21:35.730Z,100.00
2023-04-27T02:24:08.889Z,100.00
2023-04-27T02:26:55.745Z,100.00
2023-04-27T02:29:28.964Z,100.00
2023-04-27T02:32:15.830Z,100.00
2023-04-27T02:34:48.844Z,100.00
2023-04-27T02:37:35.755Z,100.00
2023-04-27T02:40:09.324Z,100.00
2023-04-27T02:43:02.736Z,100.00
2023-04-27T02:45:56.740Z,100.00
2023-04-27T02:48:43.780Z,100.00
2023-04-27T02:51:16.882Z,100.00
2023-04-27T02:54:03.753Z,100.00
2023-04-27T02:56:37.959Z,100.00
2023-04-27T02:59:24.759Z,100.00
2023-04-27T03:02:04.725Z,100.00
2023-04-27T03:04:59.754Z,100.00
2023-04-27T03:07:46.736Z,100.00
2023-04-27T03:10:26.796Z,100.00
2023-04-27T03:13:13.767Z,100.00
2023-04-27T03:15:53.752Z,100.00
2023-04-27T03:18:40.769Z,100.00
2023-04-27T03:21:18.892Z,100.00
2023-04-27T03:24:05.752Z,100.00
2023-04-27T03:26:45.745Z,100.00
2023-04-27T03:29:32.782Z,100.00
2023-04-27T03:32:12.837Z,100.00
2023-04-27T03:35:06.736Z,100.00
2023-04-27T03:38:00.744Z,100.00
2023-04-27T03:40:47.759Z,100.00
2023-04-27T03:43:20.988Z,100.00
2023-04-27T03:46:07.822Z,100.00
2023-04-27T03:48:41.132Z,100.00
2023-04-27T03:51:27.759Z,100.00
2023-04-27T03:54:00.866Z,100.00
2023-04-27T03:56:47.757Z,100.00
2023-04-27T03:59:24.238Z,100.00
2023-04-27T04:02:11.911Z,100.00
2023-04-27T04:04:45.064Z,100.00
2023-04-27T04:07:31.800Z,100.00
2023-04-27T04:10:04.894Z,100.00
2023-04-27T04:12:51.746Z,100.00
2023-04-27T04:15:24.975Z,100.00
2023-04-27T04:18:11.777Z,100.00
2023-04-27T04:20:44.907Z,100.00
2023-04-27T04:23:31.787Z,100.00
2023-04-27T04:26:04.928Z,100.00
2023-04-27T04:28:51.765Z,100.00
2023-04-27T04:31:31.856Z,100.00
2023-04-27T04:34:18.780Z,100.00
2023-04-27T04:36:51.964Z,100.00
2023-04-27T04:39:39.761Z,100.00
2023-04-27T04:42:12.874Z,100.00
2023-04-27T04:45:06.774Z,100.00
2023-04-27T04:47:53.837Z,100.00
2023-04-27T04:50:33.794Z,100.00
2023-04-27T04:53:20.799Z,100.00
2023-04-27T04:56:00.778Z,100.00
2023-04-27T04:58:54.774Z,100.00
2023-04-27T05:01:41.804Z,100.00
2023-04-27T05:04:21.981Z,100.00
2023-04-27T05:07:08.796Z,100.00
2023-04-27T05:09:44.957Z,100.00
2023-04-27T05:12:31.766Z,100.00
2023-04-27T05:15:04.906Z,100.00
2023-04-27T05:17:51.811Z,100.00
2023-04-27T05:20:31.806Z,100.00
2023-04-27T05:23:18.850Z,100.00
2023-04-27T05:25:51.866Z,100.00
2023-04-27T05:28:38.805Z,100.00
2023-04-27T05:31:18.853Z,100.00
2023-04-27T05:34:12.780Z,100.00
2023-04-27T05:37:06.801Z,100.00
2023-04-27T05:39:53.814Z,100.00
2023-04-27T05:42:26.889Z,100.00
2023-04-27T05:45:17.779Z,100.00
2023-04-27T05:47:50.950Z,100.00
2023-04-27T05:50:37.830Z,99.70
2023-04-27T05:53:11.263Z,98.52
2023-04-27T05:55:57.795Z,98.46
2023-04-27T05:58:37.820Z,96.96
2023-04-27T06:01:24.810Z,95.59
2023-04-27T06:04:07.897Z,94.89
2023-04-27T06:07:01.817Z,95.00
2023-04-27T06:09:48.799Z,89.89
2023-04-27T06:12:21.982Z,86.31
2023-04-27T06:15:14.800Z,86.02
2023-04-27T06:17:57.876Z,86.18
2023-04-27T06:20:51.822Z,86.52
2023-04-27T06:23:45.793Z,84.44
2023-04-27T06:26:39.813Z,84.62
2023-04-27T06:29:26.820Z,84.71
2023-04-27T06:32:06.929Z,84.73
2023-04-27T06:35:00.809Z,82.30
2023-04-27T06:37:47.819Z,82.47
2023-04-27T06:40:20.978Z,80.16
2023-04-27T06:43:07.818Z,80.70
2023-04-27T06:45:41.100Z,78.32
2023-04-27T06:48:27.825Z,77.34
2023-04-27T06:51:07.861Z,76.71
2023-04-27T06:54:03.811Z,75.92
2023-04-27T06:56:51.823Z,72.31
2023-04-27T06:59:31.815Z,70.54
2023-04-27T07:02:25.901Z,68.86
2023-04-27T07:05:12.830Z,65.07
2023-04-27T07:07:52.852Z,67.50
2023-04-27T07:10:46.842Z,66.01
2023-04-27T07:13:40.834Z,65.65
2023-04-27T07:16:27.863Z,64.11
2023-04-27T07:19:07.904Z,63.60
2023-04-27T07:22:01.839Z,63.08
2023-04-27T07:24:48.840Z,61.82
2023-04-27T07:27:22.361Z,62.05
2023-04-27T07:30:08.875Z,62.37
2023-04-27T07:32:54.068Z,63.03
2023-04-27T07:35:40.901Z,62.67
2023-04-27T07:38:17.568Z,62.03
2023-04-27T07:41:10.843Z,64.30
2023-04-27T07:43:43.964Z,65.13
2023-04-27T07:46:30.838Z,65.12
2023-04-27T07:49:04.053Z,66.13
2023-04-27T07:51:50.854Z,65.56
2023-04-27T07:54:30.841Z,65.86
2023-04-27T07:57:24.866Z,63.58
2023-04-27T08:00:15.864Z,64.26
2023-04-27T08:02:49.191Z,64.07
2023-04-27T08:05:36.110Z,63.55
2023-04-27T08:08:10.087Z,64.02
2023-04-27T08:10:56.866Z,62.69
2023-04-27T08:13:36.855Z,61.03
2023-04-27T08:16:30.888Z,59.07
2023-04-27T08:19:24.870Z,58.47
2023-04-27T08:22:18.874Z,56.66
2023-04-27T08:25:06.960Z,52.67
2023-04-27T08:27:49.863Z,52.97
2023-04-27T08:30:43.878Z,52.58
2023-04-27T08:33:37.842Z,51.27
2023-04-27T08:36:25.878Z,50.45
2023-04-27T08:38:58.989Z,53.67
2023-04-27T08:41:48.905Z,53.59
2023-04-27T08:44:29.917Z,54.44
2023-04-27T08:47:31.349Z,53.98
2023-04-27T08:50:26.886Z,55.85
2023-04-27T08:53:00.006Z,57.53
2023-04-27T08:55:46.881Z,58.88
2023-04-27T08:58:20.151Z,60.34
2023-04-27T09:01:12.891Z,61.90
2023-04-27T09:03:53.031Z,63.74
2023-04-27T09:06:40.867Z,64.11
2023-04-27T09:09:14.216Z,64.80
2023-04-27T09:12:00.884Z,64.95
2023-04-27T09:14:43.928Z,64.06
2023-04-27T09:17:42.024Z,63.65
2023-04-27T09:20:28.931Z,63.80
2023-04-27T09:23:05.078Z,61.65
2023-04-27T09:25:51.890Z,61.40
2023-04-27T09:28:25.003Z,60.33
2023-04-27T09:31:11.931Z,57.17
2023-04-27T09:33:45.765Z,56.98
2023-04-27T09:36:32.887Z,53.76
2023-04-27T09:39:11.802Z,54.40
2023-04-27T09:41:58.916Z,52.38
2023-04-27T09:44:35.057Z,51.05
2023-04-27T09:47:21.947Z,52.77
2023-04-27T09:50:02.908Z,52.57
2023-04-27T09:52:56.907Z,53.66
2023-04-27T09:55:52.918Z,56.67
2023-04-27T09:59:00.660Z,56.42
2023-04-27T10:01:50.057Z,58.54
2023-04-27T10:04:42.519Z,58.18
2023-04-27T10:07:33.084Z,57.87
2023-04-27T10:10:16.939Z,59.45
2023-04-27T10:13:14.925Z,57.22
2023-04-27T10:16:01.925Z,58.70
2023-04-27T10:18:40.998Z,59.04
2023-04-27T10:21:28.924Z,59.84
2023-04-27T10:24:13.993Z,57.91
2023-04-27T10:27:09.942Z,56.37
2023-04-27T10:29:51.035Z,56.02
2023-04-27T10:32:38.035Z,56.60
2023-04-27T10:35:19.938Z,55.05
2023-04-27T10:38:24.255Z,55.45
2023-04-27T10:41:13.956Z,54.03
2023-04-27T10:43:53.917Z,54.87
2023-04-27T10:46:48.954Z,53.86
2023-04-27T10:49:36.954Z,53.04
2023-04-27T10:52:16.956Z,54.31
2023-04-27T10:55:03.933Z,55.08
2023-04-27T10:57:37.280Z,56.70
2023-04-27T11:00:35.945Z,54.95
2023-04-27T11:03:27.181Z,57.28
2023-04-27T11:06:13.984Z,56.22
2023-04-27T11:08:51.197Z,52.77
2023-04-27T11:11:37.992Z,54.75
2023-04-27T11:14:11.131Z,54.17
2023-04-27T11:16:58.955Z,53.95
2023-04-27T11:19:39.262Z,54.88
2023-04-27T11:22:25.968Z,55.47
2023-04-27T11:25:06.960Z,55.59
2023-04-27T11:28:00.948Z,55.28
2023-04-27T11:30:55.958Z,55.54
2023-04-27T11:33:42.949Z,55.59
2023-04-27T11:36:30.958Z,57.07
2023-04-27T11:39:28.155Z,56.52
2023-04-27T11:42:02.802Z,57.57
2023-04-27T11:44:49.963Z,58.20
2023-04-27T11:47:24.211Z,58.89
2023-04-27T11:50:13.981Z,58.89
2023-04-27T11:52:53.949Z,59.08
2023-04-27T11:55:52.004Z,60.11
2023-04-27T11:58:44.416Z,58.58
2023-04-27T12:01:37.073Z,59.03
2023-04-27T12:04:32.024Z,58.81
2023-04-27T12:07:19.009Z,58.99
2023-04-27T12:09:52.166Z,58.73
2023-04-27T12:12:40.000Z,58.07
2023-04-27T12:15:20.962Z,58.95
2023-04-27T12:18:14.997Z,57.94
2023-04-27T12:21:08.949Z,58.79
2023-04-27T12:24:03.009Z,59.41
2023-04-27T12:26:56.971Z,59.13
2023-04-27T12:29:50.995Z,58.41
2023-04-27T12:32:45.040Z,59.37
2023-04-27T12:35:38.990Z,59.93
2023-04-27T12:38:26.022Z,58.68
2023-04-27T12:41:06.168Z,57.26
2023-04-27T12:44:00.026Z,57.63
2023-04-27T12:46:55.015Z,57.00
2023-04-27T12:49:49.004Z,58.02
2023-04-27T12:52:35.989Z,58.92
2023-04-27T12:55:17.921Z,59.76
2023-04-27T12:58:10.986Z,60.05
2023-04-27T13:00:44.116Z,61.11
2023-04-27T13:03:31.170Z,60.81
2023-04-27T13:06:10.993Z,60.69
2023-04-27T13:09:04.996Z,60.70
2023-04-27T13:11:52.024Z,61.02
2023-04-27T13:14:25.142Z,61.26
2023-04-27T13:17:12.001Z,60.29
2023-04-27T13:19:52.003Z,59.34
2023-04-27T13:22:39.006Z,58.34
2023-04-27T13:25:13.282Z,58.20
2023-04-27T13:28:01.055Z,59.09
2023-04-27T13:30:42.007Z,58.20
2023-04-27T13:33:36.048Z,58.10
2023-04-27T13:36:23.007Z,54.53
2023-04-27T13:39:02.992Z,56.43
2023-04-27T13:41:50.030Z,56.85
2023-04-27T13:44:37.008Z,57.98
2023-04-27T13:47:24.076Z,57.16
2023-04-27T13:50:04.017Z,56.42
2023-04-27T13:52:51.017Z,57.39
2023-04-27T13:55:24.191Z,58.27
2023-04-27T13:58:12.027Z,59.02
2023-04-27T14:00:54.149Z,58.92
2023-04-27T14:03:49.192Z,60.25
2023-04-27T14:06:36.006Z,60.30
2023-04-27T14:09:16.316Z,60.31
2023-04-27T14:12:10.003Z,61.31
2023-04-27T14:14:58.509Z,61.58
2023-04-27T14:17:32.444Z,61.37
2023-04-27T14:20:19.036Z,62.04
2023-04-27T14:22:59.040Z,62.53
2023-04-27T14:25:53.011Z,62.68
2023-04-27T14:28:40.082Z,62.76
2023-04-27T14:31:14.412Z,62.41
2023-04-27T14:34:03.038Z,61.58
2023-04-27T14:36:36.266Z,63.24
2023-04-27T14:39:23.066Z,63.13
2023-04-27T14:42:03.057Z,62.28
2023-04-27T14:44:57.041Z,62.72
2023-04-27T14:47:44.141Z,61.04
2023-04-27T14:50:25.041Z,62.24
2023-04-27T14:53:19.078Z,60.53
2023-04-27T14:56:13.210Z,61.01
2023-04-27T14:59:04.201Z,61.11
2023-04-27T15:01:44.093Z,60.93
2023-04-27T15:04:31.050Z,59.54
2023-04-27T15:07:04.364Z,60.45
2023-04-27T15:09:53.044Z,59.15
2023-04-27T15:12:26.191Z,60.97
2023-04-27T15:15:14.073Z,61.73
2023-04-27T15:17:48.180Z,61.60
2023-04-27T15:20:35.054Z,61.56
2023-04-27T15:23:08.145Z,61.78
2023-04-27T15:25:56.093Z,61.92
2023-04-27T15:28:30.692Z,62.11
2023-04-27T15:31:17.096Z,62.01
2023-04-27T15:33:50.274Z,61.85
2023-04-27T15:36:37.053Z,61.19
2023-04-27T15:39:10.375Z,62.35
2023-04-27T15:41:57.082Z,62.08
2023-04-27T15:44:31.247Z,62.74
2023-04-27T15:47:20.072Z,62.32
2023-04-27T15:50:00.142Z,62.41
2023-04-27T15:52:47.078Z,62.26
2023-04-27T15:55:27.062Z,63.51
2023-04-27T15:58:21.074Z,63.75
2023-04-27T16:01:08.164Z,63.40
2023-04-27T16:03:41.269Z,64.33
2023-04-27T16:06:28.307Z,63.59
2023-04-27T16:09:03.356Z,64.10
2023-04-27T16:11:50.096Z,64.61
2023-04-27T16:14:23.217Z,64.97
2023-04-27T16:17:13.075Z,65.79
2023-04-27T16:19:46.364Z,65.19
2023-04-27T16:22:34.078Z,66.49
2023-04-27T16:25:10.788Z,65.77
2023-04-27T16:27:58.102Z,64.58
2023-04-27T16:30:31.381Z,65.67
2023-04-27T16:33:18.150Z,66.34
2023-04-27T16:35:51.206Z,66.65
2023-04-27T16:38:39.462Z,66.21
2023-04-27T16:41:20.081Z,66.57
2023-04-27T16:44:14.105Z,67.68
2023-04-27T16:47:08.092Z,67.11
2023-04-27T16:49:55.146Z,67.83
2023-04-27T16:52:35.088Z,67.56
2023-04-27T16:55:23.161Z,67.26
2023-04-27T16:57:57.391Z,67.66
2023-04-27T17:00:46.108Z,67.32
2023-04-27T17:03:19.481Z,67.95
2023-04-27T17:06:07.098Z,67.36
2023-04-27T17:08:40.226Z,68.31
2023-04-27T17:11:27.132Z,68.71
2023-04-27T17:14:00.420Z,68.80
2023-04-27T17:16:47.095Z,69.33
2023-04-27T17:19:27.163Z,69.97
2023-04-27T17:22:21.131Z,69.85
2023-04-27T17:25:08.135Z,70.80
2023-04-27T17:27:51.112Z,70.53
2023-04-27T17:30:40.123Z,71.37
2023-04-27T17:33:21.094Z,71.62
2023-04-27T17:36:08.125Z,72.59
2023-04-27T17:38:41.385Z,72.42
2023-04-27T17:41:28.098Z,73.06
2023-04-27T17:44:01.392Z,73.62
2023-04-27T17:46:56.234Z,73.98
2023-04-27T17:49:36.160Z,74.42
2023-04-27T17:52:30.106Z,74.18
2023-04-27T17:55:24.137Z,74.37
2023-04-27T17:58:18.106Z,75.35
2023-04-27T18:01:12.220Z,74.77
2023-04-27T18:04:07.409Z,75.11
2023-04-27T18:06:58.121Z,75.26
2023-04-27T18:09:39.128Z,75.05
2023-04-27T18:12:33.123Z,76.10
2023-04-27T18:15:23.168Z,76.04
2023-04-27T18:18:03.175Z,76.17
2023-04-27T18:20:58.204Z,76.73
2023-04-27T18:23:46.205Z,75.89
2023-04-27T18:26:19.389Z,76.69
2023-04-27T18:29:06.146Z,77.28
2023-04-27T18:31:40.318Z,77.34
2023-04-27T18:34:27.196Z,77.69
2023-04-27T18:37:00.286Z,77.98
2023-04-27T18:39:48.145Z,77.82
2023-04-27T18:42:28.180Z,78.20
2023-04-27T18:45:22.133Z,78.67
2023-04-27T18:48:16.159Z,79.03
2023-04-27T18:51:10.143Z,78.10
2023-04-27T18:53:57.152Z,77.58
2023-04-27T18:56:38.141Z,78.50
2023-04-27T18:59:32.141Z,78.94
2023-04-27T19:02:20.181Z,78.78
2023-04-27T19:05:11.631Z,79.27
2023-04-27T19:08:07.163Z,80.18
2023-04-27T19:10:54.141Z,79.72
2023-04-27T19:13:28.380Z,79.47
2023-04-27T19:16:16.179Z,79.86
2023-04-27T19:18:56.147Z,79.81
2023-04-27T19:21:50.227Z,80.05
2023-04-27T19:24:37.164Z,80.19
2023-04-27T19:27:11.819Z,80.47
2023-04-27T19:30:01.187Z,80.70
2023-04-27T19:32:43.552Z,81.15
2023-04-27T19:35:30.205Z,81.84
2023-04-27T19:38:03.340Z,81.44
2023-04-27T19:40:50.163Z,81.46
2023-04-27T19:43:23.320Z,81.37
2023-04-27T19:46:10.216Z,82.33
2023-04-27T19:48:44.303Z,82.48
2023-04-27T19:51:31.160Z,82.55
2023-04-27T19:54:07.320Z,82.84
2023-04-27T19:56:55.233Z,82.81
2023-04-27T19:59:29.348Z,83.40
2023-04-27T20:02:16.331Z,83.68
2023-04-27T20:04:56.663Z,83.81
2023-04-27T20:07:50.312Z,83.89
2023-04-27T20:10:37.175Z,84.09
2023-04-27T20:13:10.692Z,84.50
2023-04-27T20:15:59.280Z,84.72
2023-04-27T20:18:32.338Z,84.46
2023-04-27T20:21:21.168Z,84.50
2023-04-27T20:24:02.173Z,84.31
2023-04-27T20:26:50.172Z,84.77
2023-04-27T20:29:25.478Z,84.82
2023-04-27T20:32:12.178Z,85.05
2023-04-27T20:34:45.392Z,85.24
2023-04-27T20:37:32.321Z,85.45
2023-04-27T20:40:05.679Z,85.86
2023-04-27T20:42:52.172Z,86.18
2023-04-27T20:45:41.283Z,86.53
2023-04-27T20:48:36.196Z,86.98
2023-04-27T20:51:30.189Z,86.71
2023-04-27T20:54:18.188Z,87.43
2023-04-27T20:56:58.201Z,87.83
2023-04-27T20:59:55.188Z,87.74
2023-04-27T21:02:44.281Z,88.00
2023-04-27T21:05:24.196Z,87.91
2023-04-27T21:08:11.201Z,88.09
2023-04-27T21:10:51.203Z,88.60
2023-04-27T21:13:41.215Z,88.32
2023-04-27T21:16:21.243Z,88.49
2023-04-27T21:19:15.192Z,89.51
2023-04-27T21:22:04.191Z,89.53
2023-04-27T21:24:44.200Z,89.76
2023-04-27T21:27:38.227Z,90.09
2023-04-27T21:30:25.270Z,90.33
2023-04-27T21:33:05.462Z,90.09
2023-04-27T21:35:52.228Z,90.22
2023-04-27T21:38:32.211Z,89.98
2023-04-27T21:41:19.194Z,90.26
2023-04-27T21:43:52.387Z,90.24
2023-04-27T21:46:39.227Z,90.89
2023-04-27T21:49:12.430Z,90.36
2023-04-27T21:51:59.208Z,90.75
2023-04-27T21:54:32.305Z,90.18
2023-04-27T21:57:20.231Z,90.73
2023-04-27T22:00:00.225Z,90.83
2023-04-27T22:02:55.362Z,91.05
2023-04-27T22:05:44.209Z,90.95
2023-04-27T22:08:24.217Z,90.80
2023-04-27T22:11:18.224Z,90.91
2023-04-27T22:14:12.265Z,91.06
2023-04-27T22:16:59.269Z,91.32
2023-04-27T22:19:40.212Z,91.62
2023-04-27T22:22:34.220Z,91.78
2023-04-27T22:25:28.291Z,91.82
2023-04-27T22:28:23.267Z,91.92
2023-04-27T22:31:17.262Z,92.21
2023-04-27T22:34:04.289Z,92.30
2023-04-27T22:36:37.372Z,92.11
2023-04-27T22:39:27.223Z,92.36
2023-04-27T22:42:00.517Z,92.07
2023-04-27T22:44:47.234Z,92.37
2023-04-27T22:47:20.403Z,92.43
2023-04-27T22:50:08.251Z,92.60
2023-04-27T22:52:44.268Z,92.47
2023-04-27T22:55:31.240Z,92.78
2023-04-27T22:58:11.244Z,92.66
2023-04-27T23:01:01.279Z,92.95
2023-04-27T23:03:41.309Z,92.85
2023-04-27T23:06:35.256Z,93.05
2023-04-27T23:09:29.230Z,92.70
2023-04-27T23:12:23.229Z,93.28
2023-04-27T23:15:10.239Z,93.44
2023-04-27T23:17:50.255Z,93.50
2023-04-27T23:20:37.261Z,93.40
2023-04-27T23:23:17.230Z,93.29
2023-04-27T23:26:11.230Z,93.63
2023-04-27T23:28:58.299Z,93.47
2023-04-27T23:31:38.529Z,93.48
2023-04-27T23:34:32.301Z,93.45
2023-04-27T23:37:26.302Z,93.75
2023-04-27T23:40:21.278Z,93.58
2023-04-27T23:43:15.241Z,93.49
2023-04-27T23:46:12.365Z,93.69
2023-04-27T23:48:59.246Z,93.91
2023-04-27T23:51:39.255Z,93.84
2023-04-27T23:54:33.280Z,93.66
2023-04-27T23:57:21.283Z,94.22
2023-04-27T23:59:54.438Z,94.12
